^^
Saratoga-Weather Station Historical Data
Daily Summary for February 24, 2020 Units:  Metric    English   Both
Daily Weekly Monthly Yearly Custom
  High: Low: Average:
Temperature: 6.2 °C 2.9 °C 4.3 °C
Dew Point: 5.6 °C 2.5 °C 3.9 °C
Humidity: 98% 95% 97%
Wind Speed: 6.4km/h 0km/h 1.6km/h
Wind Gust: 11.3km/h - -
Wind- - East
Pressure: 1028.1 hPa 1020.0 hPa -
Precipitation: 0.2 mm    
Historical Graphs
 
 
Tabular Data for February 24, 2020
Time Temperature Dew Point Pressure Wind Wind Speed Wind Gust Humidity Rainfall Rate (Hourly) solar
00:00 6.2 °C 5.6 °C 1028.1 hPa Calm     96% 0.0 mm 0 W/m2
00:05 6.1 °C 5.5 °C 1028.1 hPa Calm     96% 0.0 mm 0 W/m2
00:10 6 °C 5.4 °C 1027.8 hPa Calm     96% 0.0 mm 0 W/m2
00:15 5.9 °C 5.3 °C 1028.1 hPa Calm     96% 0.0 mm 0 W/m2
00:20 5.8 °C 5.2 °C 1027.8 hPa Calm     96% 0.0 mm 0 W/m2
00:25 5.8 °C 5.2 °C 1027.8 hPa Calm     96% 0.0 mm 0 W/m2
00:30 5.7 °C 5.1 °C 1027.8 hPa Calm     96% 0.0 mm 0 W/m2
00:35 5.7 °C 5.1 °C 1027.8 hPa Calm     96% 0.0 mm 0 W/m2
00:40 5.6 °C 5 °C 1027.8 hPa Calm     96% 0.0 mm 0 W/m2
00:45 5.4 °C 4.8 °C 1027.8 hPa Calm     96% 0.0 mm 0 W/m2
00:50 5.4 °C 4.8 °C 1027.4 hPa Calm     96% 0.0 mm 0 W/m2
00:55 5.3 °C 4.7 °C 1027.4 hPa Calm     96% 0.0 mm 0 W/m2
01:00 5.3 °C 4.7 °C 1027.4 hPa Calm     96% 0.0 mm 0 W/m2
01:05 5.2 °C 4.6 °C 1027.4 hPa Calm     96% 0.0 mm 0 W/m2
01:10 5.2 °C 4.6 °C 1027.4 hPa Calm     96% 0.0 mm 0 W/m2
01:15 5.2 °C 4.6 °C 1027.4 hPa Calm     96% 0.0 mm 0 W/m2
01:20 5.2 °C 4.6 °C 1027.4 hPa Calm     96% 0.0 mm 0 W/m2
01:25 5.3 °C 4.7 °C 1027.4 hPa Calm     96% 0.0 mm 0 W/m2
01:30 5.3 °C 4.7 °C 1027.4 hPa Calm     96% 0.0 mm 0 W/m2
01:35 5.4 °C 5 °C 1027.4 hPa Calm     97% 0.0 mm 0 W/m2
01:40 5.5 °C 5.1 °C 1027.4 hPa Calm     97% 0.0 mm 0 W/m2
01:45 5.6 °C 5.2 °C 1027.4 hPa Calm     97% 0.0 mm 0 W/m2
01:50 5.7 °C 5.3 °C 1027.4 hPa Calm     97% 0.0 mm 0 W/m2
01:55 5.7 °C 5.3 °C 1027.4 hPa ENE 1.4 km/h 3.2 km/h 97% 0.0 mm 0 W/m2
02:01 5.7 °C 5.3 °C 1027.1 hPa Calm   1.6 km/h 97% 0.0 mm 0 W/m2
02:06 5.7 °C 5.3 °C 1027.1 hPa Calm     97% 0.0 mm 0 W/m2
02:11 5.6 °C 5.2 °C 1027.1 hPa Calm   1.6 km/h 97% 0.0 mm 0 W/m2
02:16 5.6 °C 5.2 °C 1027.1 hPa Calm     97% 0.0 mm 0 W/m2
02:21 5.6 °C 5.2 °C 1027.1 hPa Calm     97% 0.0 mm 0 W/m2
02:26 5.6 °C 5.2 °C 1026.8 hPa Calm     97% 0.0 mm 0 W/m2
02:31 5.5 °C 5.1 °C 1026.8 hPa Calm     97% 0.0 mm 0 W/m2
02:36 5.6 °C 5.2 °C 1026.8 hPa Calm     97% 0.0 mm 0 W/m2
02:41 5.5 °C 5.1 °C 1026.8 hPa Calm     97% 0.0 mm 0 W/m2
02:46 5.5 °C 5.1 °C 1026.8 hPa Calm     97% 0.0 mm 0 W/m2
02:51 5.5 °C 5.1 °C 1026.8 hPa Calm     97% 0.0 mm 0 W/m2
02:56 5.5 °C 5.1 °C 1026.8 hPa Calm     97% 0.0 mm 0 W/m2
03:01 5.5 °C 5.1 °C 1026.8 hPa Calm   3.2 km/h 97% 0.0 mm 0 W/m2
03:06 5.5 °C 5.1 °C 1026.8 hPa Calm   1.6 km/h 97% 0.0 mm 0 W/m2
03:11 5.4 °C 5 °C 1026.8 hPa Calm   3.2 km/h 97% 0.0 mm 0 W/m2
03:16 5.4 °C 5 °C 1026.8 hPa Calm   3.2 km/h 97% 0.0 mm 0 W/m2
03:21 5.3 °C 4.7 °C 1026.8 hPa Calm   3.2 km/h 96% 0.0 mm 0 W/m2
03:26 5.3 °C 4.9 °C 1026.8 hPa Calm     97% 0.0 mm 0 W/m2
03:31 5.3 °C 4.9 °C 1026.4 hPa Calm     97% 0.0 mm 0 W/m2
03:36 5.2 °C 4.8 °C 1026.4 hPa NE 1.4 km/h 3.2 km/h 97% 0.0 mm 0 W/m2
03:41 5.2 °C 4.8 °C 1026.4 hPa Calm     97% 0.0 mm 0 W/m2
03:46 5.2 °C 4.8 °C 1026.4 hPa Calm   1.6 km/h 97% 0.0 mm 0 W/m2
03:51 5.2 °C 4.8 °C 1026.1 hPa Calm   1.6 km/h 97% 0.0 mm 0 W/m2
03:56 5.1 °C 4.7 °C 1026.1 hPa Calm     97% 0.0 mm 0 W/m2
04:01 5.1 °C 4.7 °C 1026.1 hPa NE 1.4 km/h 1.6 km/h 97% 0.0 mm 0 W/m2
04:06 5.1 °C 4.7 °C 1026.1 hPa Calm   1.6 km/h 97% 0.0 mm 0 W/m2
04:11 5.1 °C 4.7 °C 1025.7 hPa Calm   1.6 km/h 97% 0.0 mm 0 W/m2
04:16 5.1 °C 4.7 °C 1025.7 hPa NE 1.4 km/h 3.2 km/h 97% 0.0 mm 0 W/m2
04:21 5 °C 4.6 °C 1026.1 hPa Calm   1.6 km/h 97% 0.0 mm 0 W/m2
04:26 5 °C 4.6 °C 1026.1 hPa NE 1.4 km/h 4.8 km/h 97% 0.0 mm 0 W/m2
04:31 4.9 °C 4.5 °C 1025.7 hPa NE 3.2 km/h 3.2 km/h 97% 0.0 mm 0 W/m2
04:36 4.8 °C 4.4 °C 1025.7 hPa NE 1.4 km/h 4.8 km/h 97% 0.0 mm 0 W/m2
04:41 4.7 °C 4.3 °C 1026.1 hPa Calm   1.6 km/h 97% 0.0 mm 0 W/m2
04:46 4.7 °C 4.3 °C 1025.7 hPa Calm     97% 0.0 mm 0 W/m2
04:51 4.7 °C 4.3 °C 1025.7 hPa Calm     97% 0.0 mm 0 W/m2
04:56 4.7 °C 4.3 °C 1026.1 hPa Calm     97% 0.0 mm 0 W/m2
05:01 4.7 °C 4.3 °C 1025.7 hPa NE 1.4 km/h 3.2 km/h 97% 0.0 mm 0 W/m2
05:06 4.6 °C 4.2 °C 1025.7 hPa Calm   1.6 km/h 97% 0.0 mm 0 W/m2
05:11 4.6 °C 4.2 °C 1025.7 hPa Calm     97% 0.0 mm 0 W/m2
05:16 4.6 °C 4.2 °C 1025.7 hPa Calm     97% 0.0 mm 0 W/m2
05:21 4.6 °C 4.2 °C 1025.7 hPa NE 1.4 km/h 1.6 km/h 97% 0.0 mm 0 W/m2
05:26 4.5 °C 4.1 °C 1025.7 hPa Calm   1.6 km/h 97% 0.0 mm 0 W/m2
05:31 4.5 °C 4.1 °C 1025.7 hPa Calm     97% 0.0 mm 0 W/m2
05:36 4.4 °C 4 °C 1025.7 hPa Calm     97% 0.0 mm 0 W/m2
05:41 4.4 °C 4 °C 1025.7 hPa Calm     97% 0.0 mm 0 W/m2
05:46 4.4 °C 4 °C 1025.7 hPa Calm     97% 0.0 mm 0 W/m2
05:51 4.4 °C 4 °C 1025.7 hPa Calm     97% 0.0 mm 0 W/m2
05:56 4.4 °C 4 °C 1025.7 hPa NE 1.4 km/h 1.6 km/h 97% 0.0 mm 0 W/m2
06:01 4.4 °C 4 °C 1025.7 hPa NE 1.4 km/h 1.6 km/h 97% 0.0 mm 0 W/m2
06:06 4.3 °C 3.9 °C 1025.7 hPa Calm     97% 0.0 mm 0 W/m2
06:11 4.3 °C 3.9 °C 1025.7 hPa Calm     97% 0.0 mm 0 W/m2
06:16 4.4 °C 4 °C 1025.7 hPa Calm   1.6 km/h 97% 0.0 mm 0 W/m2
06:21 4.3 °C 3.9 °C 1025.4 hPa NE 1.4 km/h 1.6 km/h 97% 0.0 mm 0 W/m2
06:26 4.3 °C 3.9 °C 1025.4 hPa Calm     97% 0.0 mm 0 W/m2
06:31 4.3 °C 3.9 °C 1025.4 hPa Calm     97% 0.0 mm 0 W/m2
06:36 4.3 °C 3.9 °C 1025.4 hPa Calm   3.2 km/h 97% 0.0 mm 0 W/m2
06:41 4.3 °C 3.9 °C 1025.4 hPa Calm     97% 0.0 mm 0 W/m2
06:46 4.3 °C 3.9 °C 1025.4 hPa Calm   1.6 km/h 97% 0.0 mm 0 W/m2
06:51 4.3 °C 3.9 °C 1025.4 hPa Calm   1.6 km/h 97% 0.0 mm 0 W/m2
06:56 4.3 °C 3.9 °C 1025.4 hPa NE 3.2 km/h 4.8 km/h 97% 0.0 mm 0 W/m2
07:01 4.3 °C 3.9 °C 1025.4 hPa Calm   3.2 km/h 97% 0.0 mm 0 W/m2
07:06 4.3 °C 3.9 °C 1025.4 hPa Calm   4.8 km/h 97% 0.0 mm 0 W/m2
07:11 4.3 °C 3.9 °C 1025.4 hPa NE 1.4 km/h 1.6 km/h 97% 0.0 mm 0 W/m2
07:16 4.4 °C 4 °C 1025.4 hPa NE 4.7 km/h 6.4 km/h 97% 0.0 mm 0 W/m2
07:21 4.4 °C 4 °C 1025.4 hPa NE 1.4 km/h 4.8 km/h 97% 0.0 mm 0 W/m2
07:26 4.4 °C 4 °C 1025.4 hPa NE 1.4 km/h 6.4 km/h 97% 0.0 mm 0 W/m2
07:31 4.4 °C 4 °C 1025.4 hPa Calm   1.6 km/h 97% 0.0 mm 0 W/m2
07:36 4.4 °C 4 °C 1025.4 hPa Calm   3.2 km/h 97% 0.0 mm 0 W/m2
07:41 4.4 °C 4 °C 1025.4 hPa Calm   1.6 km/h 97% 0.0 mm 0 W/m2
07:46 4.4 °C 4 °C 1025.4 hPa Calm   3.2 km/h 97% 0.0 mm 0 W/m2
07:51 4.4 °C 4 °C 1025.4 hPa Calm   3.2 km/h 97% 0.0 mm 0 W/m2
07:56 4.4 °C 4 °C 1025.4 hPa NE 3.2 km/h 4.8 km/h 97% 0.0 mm 0 W/m2
08:01 4.4 °C 4 °C 1025.4 hPa ENE 3.2 km/h 3.2 km/h 97% 0.0 mm 0 W/m2
08:06 4.4 °C 4 °C 1025.4 hPa ENE 1.4 km/h 1.6 km/h 97% 0.0 mm 0 W/m2
08:11 4.4 °C 4 °C 1025.4 hPa Calm     97% 0.0 mm 0 W/m2
08:16 4.4 °C 4 °C 1025.4 hPa Calm     97% 0.0 mm 0 W/m2
08:21 4.4 °C 4 °C 1025.4 hPa ENE 3.2 km/h 6.4 km/h 97% 0.0 mm 5 W/m2
08:26 4.3 °C 3.9 °C 1025.4 hPa Calm     97% 0.0 mm 5 W/m2
08:31 4.3 °C 3.9 °C 1025.4 hPa Calm   3.2 km/h 97% 0.0 mm 5 W/m2
08:36 4.3 °C 3.9 °C 1025.4 hPa Calm   3.2 km/h 97% 0.2 mm 7 W/m2
08:41 4.3 °C 3.9 °C 1025.4 hPa ESE 3.2 km/h 4.8 km/h 97% 0.2 mm 7 W/m2
08:46 4.3 °C 3.9 °C 1025.4 hPa Calm   1.6 km/h 97% 0.2 mm 9 W/m2
08:51 4.3 °C 3.9 °C 1025.4 hPa Calm     97% 0.2 mm 11 W/m2
08:56 4.3 °C 3.9 °C 1025.4 hPa ENE 1.4 km/h 8 km/h 97% 0.2 mm 11 W/m2
09:01 4.2 °C 3.8 °C 1025.4 hPa Calm     97% 0.2 mm 12 W/m2
09:06 4.2 °C 3.8 °C 1025.1 hPa Calm   8 km/h 97% 0.2 mm 14 W/m2
09:11 4.2 °C 3.8 °C 1025.1 hPa Calm   4.8 km/h 97% 0.2 mm 14 W/m2
09:16 4.2 °C 3.8 °C 1025.1 hPa NE 1.4 km/h 1.6 km/h 97% 0.2 mm 18 W/m2
09:21 4.2 °C 3.8 °C 1025.1 hPa East 3.2 km/h 3.2 km/h 97% 0.2 mm 21 W/m2
09:26 4.2 °C 3.8 °C 1025.1 hPa ESE 6.4 km/h 6.4 km/h 97% 0.2 mm 23 W/m2
09:31 4.2 °C 3.8 °C 1025.1 hPa SSE 4.7 km/h 6.4 km/h 97% 0.2 mm 23 W/m2
09:36 4.2 °C 3.8 °C 1025.1 hPa ESE 1.4 km/h 4.8 km/h 97% 0.0 mm 26 W/m2
09:41 4.1 °C 3.7 °C 1025.1 hPa ENE 3.2 km/h 3.2 km/h 97% 0.0 mm 28 W/m2
09:46 4.1 °C 3.7 °C 1025.1 hPa ENE 3.2 km/h 6.4 km/h 97% 0.0 mm 28 W/m2
09:51 3.9 °C 3.5 °C 1025.1 hPa ESE 4.7 km/h 4.8 km/h 97% 0.0 mm 28 W/m2
09:56 3.8 °C 3.4 °C 1025.1 hPa ESE 1.4 km/h 3.2 km/h 97% 0.0 mm 28 W/m2
10:01 3.8 °C 3.4 °C 1025.1 hPa East 4.7 km/h 6.4 km/h 97% 0.0 mm 32 W/m2
10:06 3.8 °C 3.4 °C 1025.4 hPa East 1.4 km/h 4.8 km/h 97% 0.0 mm 30 W/m2
10:11 3.7 °C 3.3 °C 1025.1 hPa ESE 3.2 km/h 3.2 km/h 97% 0.0 mm 33 W/m2
10:16 3.7 °C 3.3 °C 1025.1 hPa East 1.4 km/h 3.2 km/h 97% 0.0 mm 39 W/m2
10:21 3.6 °C 3.2 °C 1025.1 hPa SE 1.4 km/h 4.8 km/h 97% 0.0 mm 40 W/m2
10:26 3.6 °C 3.2 °C 1025.1 hPa East 3.2 km/h 3.2 km/h 97% 0.0 mm 39 W/m2
10:31 3.6 °C 3.2 °C 1025.1 hPa SE 3.2 km/h 3.2 km/h 97% 0.0 mm 42 W/m2
10:36 3.6 °C 3.2 °C 1025.1 hPa Calm   3.2 km/h 97% 0.0 mm 46 W/m2
10:41 3.6 °C 3.2 °C 1025.1 hPa SE 1.4 km/h 9.7 km/h 97% 0.0 mm 46 W/m2
10:46 3.4 °C 3 °C 1025.1 hPa ESE 3.2 km/h 4.8 km/h 97% 0.0 mm 46 W/m2
10:51 3.4 °C 3 °C 1025.1 hPa East 1.4 km/h 9.7 km/h 97% 0.0 mm 47 W/m2
10:57 3.3 °C 2.9 °C 1025.1 hPa Calm   4.8 km/h 97% 0.0 mm 47 W/m2
11:02 3.3 °C 2.9 °C 1025.1 hPa Calm   1.6 km/h 97% 0.0 mm 46 W/m2
11:07 3.3 °C 2.9 °C 1025.1 hPa East 1.4 km/h 1.6 km/h 97% 0.0 mm 49 W/m2
11:12 3.4 °C 3 °C 1025.1 hPa East 1.4 km/h 3.2 km/h 97% 0.0 mm 47 W/m2
11:17 3.4 °C 3 °C 1025.1 hPa ENE 1.4 km/h 3.2 km/h 97% 0.0 mm 44 W/m2
11:22 3.4 °C 3 °C 1025.1 hPa East 1.4 km/h 4.8 km/h 97% 0.0 mm 44 W/m2
11:27 3.4 °C 3 °C 1025.1 hPa ENE 1.4 km/h 3.2 km/h 97% 0.0 mm 47 W/m2
11:32 3.3 °C 2.9 °C 1025.1 hPa ESE 6.4 km/h 11.3 km/h 97% 0.0 mm 46 W/m2
11:37 3.2 °C 2.8 °C 1024.7 hPa Calm   3.2 km/h 97% 0.0 mm 49 W/m2
11:42 3.2 °C 2.8 °C 1024.7 hPa ENE 4.7 km/h 11.3 km/h 97% 0.0 mm 47 W/m2
11:47 3.1 °C 2.7 °C 1024.7 hPa ESE 1.4 km/h 4.8 km/h 97% 0.0 mm 49 W/m2
11:52 3.1 °C 2.7 °C 1024.7 hPa East 3.2 km/h 4.8 km/h 97% 0.0 mm 51 W/m2
11:57 3.1 °C 2.7 °C 1024.7 hPa ESE 1.4 km/h 3.2 km/h 97% 0.0 mm 49 W/m2
12:02 3.1 °C 2.7 °C 1024.4 hPa NE 3.2 km/h 4.8 km/h 97% 0.0 mm 51 W/m2
12:07 2.9 °C 2.5 °C 1024.4 hPa ENE 1.4 km/h 4.8 km/h 97% 0.0 mm 53 W/m2
12:12 2.9 °C 2.5 °C 1024.4 hPa Calm   3.2 km/h 97% 0.0 mm 51 W/m2
12:17 2.9 °C 2.5 °C 1024.4 hPa ENE 1.4 km/h 3.2 km/h 97% 0.0 mm 49 W/m2
12:22 3 °C 2.6 °C 1024.0 hPa ENE 1.4 km/h 6.4 km/h 97% 0.0 mm 53 W/m2
12:27 3.1 °C 2.7 °C 1024.0 hPa ESE 3.2 km/h 4.8 km/h 97% 0.0 mm 58 W/m2
12:32 3.2 °C 2.8 °C 1024.0 hPa Calm   4.8 km/h 97% 0.0 mm 62 W/m2
12:37 3.3 °C 2.9 °C 1024.0 hPa SE 3.2 km/h 4.8 km/h 97% 0.0 mm 65 W/m2
12:42 3.4 °C 3 °C 1023.7 hPa NE 3.2 km/h 4.8 km/h 97% 0.0 mm 49 W/m2
12:47 3.4 °C 3 °C 1023.7 hPa East 3.2 km/h 6.4 km/h 97% 0.0 mm 56 W/m2
12:52 3.4 °C 3 °C 1023.7 hPa ESE 3.2 km/h 4.8 km/h 97% 0.0 mm 60 W/m2
12:57 3.5 °C 3.1 °C 1023.7 hPa East 3.2 km/h 6.4 km/h 97% 0.0 mm 53 W/m2
13:02 3.6 °C 3.2 °C 1023.7 hPa East 1.4 km/h 4.8 km/h 97% 0.0 mm 49 W/m2
13:07 3.6 °C 3.2 °C 1023.4 hPa ENE 4.7 km/h 4.8 km/h 97% 0.0 mm 49 W/m2
13:12 3.7 °C 3.3 °C 1023.4 hPa Calm   4.8 km/h 97% 0.0 mm 46 W/m2
13:17 3.7 °C 3.3 °C 1023.4 hPa Calm   3.2 km/h 97% 0.0 mm 46 W/m2
13:22 3.8 °C 3.4 °C 1023.4 hPa East 1.4 km/h 3.2 km/h 97% 0.0 mm 44 W/m2
13:27 3.8 °C 3.4 °C 1023.4 hPa ENE 3.2 km/h 4.8 km/h 97% 0.0 mm 47 W/m2
13:32 3.8 °C 3.4 °C 1023.4 hPa ESE 1.4 km/h 4.8 km/h 97% 0.0 mm 40 W/m2
13:37 3.9 °C 3.5 °C 1023.4 hPa ESE 1.4 km/h 4.8 km/h 97% 0.0 mm 39 W/m2
13:42 3.9 °C 3.5 °C 1023.4 hPa Calm   4.8 km/h 97% 0.0 mm 35 W/m2
13:47 4 °C 3.7 °C 1023.0 hPa East 1.4 km/h 4.8 km/h 98% 0.0 mm 35 W/m2
13:52 4.1 °C 3.8 °C 1023.0 hPa ENE 6.4 km/h 6.4 km/h 98% 0.0 mm 37 W/m2
13:57 4.1 °C 3.8 °C 1023.0 hPa East 3.2 km/h 8 km/h 98% 0.0 mm 37 W/m2
14:02 4 °C 3.7 °C 1023.0 hPa South 1.4 km/h 4.8 km/h 98% 0.0 mm 35 W/m2
14:07 4 °C 3.7 °C 1022.7 hPa East 4.7 km/h 6.4 km/h 98% 0.0 mm 35 W/m2
14:12 4 °C 3.7 °C 1022.7 hPa East 3.2 km/h 4.8 km/h 98% 0.0 mm 33 W/m2
14:17 4 °C 3.7 °C 1022.7 hPa ESE 1.4 km/h 4.8 km/h 98% 0.0 mm 35 W/m2
14:22 4.1 °C 3.8 °C 1022.7 hPa Calm   3.2 km/h 98% 0.0 mm 30 W/m2
14:27 4.1 °C 3.7 °C 1022.7 hPa Calm   3.2 km/h 97% 0.0 mm 28 W/m2
14:32 4 °C 3.7 °C 1022.7 hPa Calm   4.8 km/h 98% 0.0 mm 26 W/m2
14:37 4 °C 3.6 °C 1022.7 hPa SE 4.7 km/h 6.4 km/h 97% 0.0 mm 26 W/m2
14:42 4 °C 3.6 °C 1022.7 hPa Calm   1.6 km/h 97% 0.0 mm 28 W/m2
14:47 4 °C 3.6 °C 1022.7 hPa East 1.4 km/h 3.2 km/h 97% 0.0 mm 26 W/m2
14:52 3.9 °C 3.5 °C 1022.4 hPa ESE 1.4 km/h 4.8 km/h 97% 0.0 mm 28 W/m2
14:57 3.9 °C 3.5 °C 1022.4 hPa Calm   6.4 km/h 97% 0.0 mm 25 W/m2
15:02 3.9 °C 3.5 °C 1022.4 hPa ESE 3.2 km/h 6.4 km/h 97% 0.0 mm 21 W/m2
15:07 3.9 °C 3.5 °C 1022.4 hPa East 3.2 km/h 3.2 km/h 97% 0.0 mm 21 W/m2
15:12 3.9 °C 3.5 °C 1022.4 hPa East 3.2 km/h 3.2 km/h 97% 0.0 mm 18 W/m2
15:17 3.9 °C 3.5 °C 1022.4 hPa Calm   3.2 km/h 97% 0.0 mm 12 W/m2
15:22 3.8 °C 3.4 °C 1022.4 hPa East 1.4 km/h 3.2 km/h 97% 0.0 mm 11 W/m2
15:27 3.8 °C 3.4 °C 1022.4 hPa ESE 3.2 km/h 4.8 km/h 97% 0.0 mm 9 W/m2
15:32 3.8 °C 3.4 °C 1022.4 hPa ESE 6.4 km/h 6.4 km/h 97% 0.0 mm 7 W/m2
15:37 3.8 °C 3.4 °C 1022.0 hPa ESE 3.2 km/h 4.8 km/h 97% 0.0 mm 9 W/m2
15:42 3.8 °C 3.4 °C 1022.0 hPa NE 3.2 km/h 3.2 km/h 97% 0.0 mm 7 W/m2
15:47 3.8 °C 3.4 °C 1022.0 hPa East 4.7 km/h 4.8 km/h 97% 0.0 mm 7 W/m2
15:52 3.8 °C 3.4 °C 1022.0 hPa East 4.7 km/h 9.7 km/h 97% 0.0 mm 7 W/m2
15:58 3.7 °C 3.3 °C 1022.0 hPa ESE 4.7 km/h 8 km/h 97% 0.0 mm 7 W/m2
16:03 3.7 °C 3.3 °C 1022.0 hPa Calm   9.7 km/h 97% 0.0 mm 5 W/m2
16:08 3.7 °C 3.3 °C 1022.0 hPa ESE 1.4 km/h 3.2 km/h 97% 0.0 mm 5 W/m2
16:13 3.7 °C 3.3 °C 1022.0 hPa ENE 1.4 km/h 4.8 km/h 97% 0.0 mm 5 W/m2
16:18 3.8 °C 3.4 °C 1022.0 hPa East 3.2 km/h 4.8 km/h 97% 0.0 mm 0 W/m2
16:23 3.8 °C 3.4 °C 1022.0 hPa ESE 1.4 km/h 3.2 km/h 97% 0.0 mm 0 W/m2
16:28 3.8 °C 3.4 °C 1022.0 hPa East 1.4 km/h 3.2 km/h 97% 0.0 mm 0 W/m2
16:33 3.8 °C 3.4 °C 1022.0 hPa SE 3.2 km/h 4.8 km/h 97% 0.0 mm 0 W/m2
16:38 3.9 °C 3.5 °C 1022.0 hPa SE 1.4 km/h 4.8 km/h 97% 0.0 mm 0 W/m2
16:43 3.9 °C 3.5 °C 1021.7 hPa ENE 1.4 km/h 4.8 km/h 97% 0.0 mm 0 W/m2
16:48 3.9 °C 3.5 °C 1021.7 hPa ENE 3.2 km/h 4.8 km/h 97% 0.0 mm 0 W/m2
16:53 3.9 °C 3.5 °C 1021.7 hPa ENE 4.7 km/h 4.8 km/h 97% 0.0 mm 0 W/m2
16:58 3.9 °C 3.5 °C 1021.7 hPa SE 3.2 km/h 6.4 km/h 97% 0.0 mm 0 W/m2
17:03 3.9 °C 3.5 °C 1021.7 hPa ENE 6.4 km/h 6.4 km/h 97% 0.0 mm 0 W/m2
17:08 3.9 °C 3.5 °C 1021.7 hPa Calm   3.2 km/h 97% 0.0 mm 0 W/m2
17:13 3.9 °C 3.5 °C 1021.7 hPa ESE 1.4 km/h 4.8 km/h 97% 0.0 mm 0 W/m2
17:18 3.9 °C 3.5 °C 1021.7 hPa SE 3.2 km/h 4.8 km/h 97% 0.0 mm 0 W/m2
17:23 3.9 °C 3.5 °C 1021.7 hPa ESE 1.4 km/h 11.3 km/h 97% 0.0 mm 0 W/m2
17:28 3.9 °C 3.5 °C 1021.7 hPa ESE 3.2 km/h 3.2 km/h 97% 0.0 mm 0 W/m2
17:33 3.9 °C 3.5 °C 1021.7 hPa ESE 1.4 km/h 11.3 km/h 97% 0.0 mm 0 W/m2
17:38 3.8 °C 3.4 °C 1021.7 hPa NE 4.7 km/h 11.3 km/h 97% 0.0 mm 0 W/m2
17:43 3.8 °C 3.4 °C 1021.7 hPa ESE 4.7 km/h 4.8 km/h 97% 0.0 mm 0 W/m2
17:48 3.8 °C 3.4 °C 1021.7 hPa East 3.2 km/h 4.8 km/h 97% 0.0 mm 0 W/m2
17:53 3.8 °C 3.4 °C 1021.7 hPa ESE 1.4 km/h 4.8 km/h 97% 0.0 mm 0 W/m2
17:58 3.9 °C 3.5 °C 1021.7 hPa ESE 1.4 km/h 6.4 km/h 97% 0.0 mm 0 W/m2
18:03 3.9 °C 3.5 °C 1021.7 hPa ENE 1.4 km/h 4.8 km/h 97% 0.0 mm 0 W/m2
18:08 3.9 °C 3.5 °C 1021.7 hPa ENE 1.4 km/h 1.6 km/h 97% 0.0 mm 0 W/m2
18:13 3.9 °C 3.5 °C 1021.7 hPa East 3.2 km/h 4.8 km/h 97% 0.0 mm 0 W/m2
18:18 3.9 °C 3.5 °C 1021.3 hPa Calm   3.2 km/h 97% 0.0 mm 0 W/m2
18:23 4 °C 3.6 °C 1021.7 hPa East 1.4 km/h 4.8 km/h 97% 0.0 mm 0 W/m2
18:28 4.1 °C 3.7 °C 1021.7 hPa ENE 3.2 km/h 4.8 km/h 97% 0.0 mm 0 W/m2
18:33 4.1 °C 3.7 °C 1021.3 hPa ESE 3.2 km/h 3.2 km/h 97% 0.0 mm 0 W/m2
18:38 4.1 °C 3.7 °C 1021.3 hPa East 1.4 km/h 3.2 km/h 97% 0.0 mm 0 W/m2
18:43 4.1 °C 3.7 °C 1021.3 hPa ESE 3.2 km/h 4.8 km/h 97% 0.0 mm 0 W/m2
18:48 4.2 °C 3.8 °C 1021.3 hPa ESE 3.2 km/h 3.2 km/h 97% 0.0 mm 0 W/m2
18:53 4.2 °C 3.8 °C 1021.3 hPa Calm   3.2 km/h 97% 0.0 mm 0 W/m2
18:58 4.2 °C 3.8 °C 1021.3 hPa ESE 1.4 km/h 6.4 km/h 97% 0.0 mm 0 W/m2
19:03 4.2 °C 3.8 °C 1021.3 hPa NE 1.4 km/h 3.2 km/h 97% 0.0 mm 0 W/m2
19:08 4.3 °C 3.9 °C 1021.3 hPa ESE 1.4 km/h 4.8 km/h 97% 0.0 mm 0 W/m2
19:13 4.3 °C 3.9 °C 1021.3 hPa East 3.2 km/h 3.2 km/h 97% 0.0 mm 0 W/m2
19:18 4.3 °C 3.9 °C 1021.3 hPa East 1.4 km/h 8 km/h 97% 0.0 mm 0 W/m2
19:23 4.3 °C 3.9 °C 1021.3 hPa ESE 1.4 km/h 4.8 km/h 97% 0.0 mm 0 W/m2
19:28 4.3 °C 3.9 °C 1021.3 hPa ESE 1.4 km/h 4.8 km/h 97% 0.0 mm 0 W/m2
19:33 4.4 °C 4 °C 1021.3 hPa East 3.2 km/h 3.2 km/h 97% 0.0 mm 0 W/m2
19:38 4.4 °C 4 °C 1021.3 hPa East 4.7 km/h 6.4 km/h 97% 0.0 mm 0 W/m2
19:43 4.4 °C 4 °C 1021.3 hPa ESE 3.2 km/h 3.2 km/h 97% 0.0 mm 0 W/m2
19:48 4.4 °C 4 °C 1021.3 hPa ESE 1.4 km/h 6.4 km/h 97% 0.0 mm 0 W/m2
19:53 4.5 °C 4.1 °C 1021.3 hPa ENE 1.4 km/h 3.2 km/h 97% 0.0 mm 0 W/m2
19:59 4.5 °C 4.1 °C 1021.3 hPa East 3.2 km/h 6.4 km/h 97% 0.0 mm 0 W/m2
20:04 4.5 °C 4.1 °C 1021.0 hPa East 3.2 km/h 9.7 km/h 97% 0.0 mm 0 W/m2
20:09 4.5 °C 4.1 °C 1021.3 hPa NNE 4.7 km/h 4.8 km/h 97% 0.0 mm 0 W/m2
20:14 4.6 °C 4.2 °C 1021.3 hPa ESE 1.4 km/h 9.7 km/h 97% 0.0 mm 0 W/m2
20:19 4.6 °C 4.2 °C 1021.3 hPa ESE 3.2 km/h 6.4 km/h 97% 0.0 mm 0 W/m2
20:24 4.6 °C 4.2 °C 1021.3 hPa ESE 1.4 km/h 6.4 km/h 97% 0.0 mm 0 W/m2
20:29 4.6 °C 4.2 °C 1021.3 hPa East 1.4 km/h 3.2 km/h 97% 0.0 mm 0 W/m2
20:34 4.6 °C 4.2 °C 1021.3 hPa ESE 3.2 km/h 3.2 km/h 97% 0.0 mm 0 W/m2
20:39 4.6 °C 4.2 °C 1021.0 hPa ESE 1.4 km/h 1.6 km/h 97% 0.0 mm 0 W/m2
20:44 4.6 °C 4.2 °C 1021.0 hPa East 1.4 km/h 3.2 km/h 97% 0.0 mm 0 W/m2
20:49 4.6 °C 4.2 °C 1021.0 hPa ESE 3.2 km/h 3.2 km/h 97% 0.0 mm 0 W/m2
20:54 4.5 °C 4.1 °C 1021.0 hPa ESE 1.4 km/h 9.7 km/h 97% 0.0 mm 0 W/m2
20:59 4.6 °C 4.2 °C 1021.0 hPa Calm   3.2 km/h 97% 0.0 mm 0 W/m2
21:04 4.6 °C 4.2 °C 1021.0 hPa ESE 3.2 km/h 9.7 km/h 97% 0.0 mm 0 W/m2
21:09 4.5 °C 4.1 °C 1021.0 hPa ESE 1.4 km/h 3.2 km/h 97% 0.0 mm 0 W/m2
21:14 4.5 °C 4.1 °C 1020.7 hPa East 1.4 km/h 4.8 km/h 97% 0.0 mm 0 W/m2
21:19 4.5 °C 4.1 °C 1020.7 hPa East 3.2 km/h 6.4 km/h 97% 0.0 mm 0 W/m2
21:24 4.5 °C 4.1 °C 1020.7 hPa ESE 3.2 km/h 4.8 km/h 97% 0.0 mm 0 W/m2
21:29 4.5 °C 3.9 °C 1020.7 hPa ESE 1.4 km/h 3.2 km/h 96% 0.0 mm 0 W/m2
21:34 4.6 °C 4 °C 1020.7 hPa East 4.7 km/h 4.8 km/h 96% 0.0 mm 0 W/m2
21:39 4.5 °C 3.9 °C 1020.7 hPa East 3.2 km/h 4.8 km/h 96% 0.0 mm 0 W/m2
21:44 4.5 °C 3.9 °C 1020.7 hPa East 3.2 km/h 4.8 km/h 96% 0.0 mm 0 W/m2
21:49 4.6 °C 4 °C 1020.7 hPa ESE 1.4 km/h 3.2 km/h 96% 0.0 mm 0 W/m2
21:54 4.6 °C 4 °C 1020.7 hPa ESE 4.7 km/h 6.4 km/h 96% 0.0 mm 0 W/m2
21:59 4.6 °C 4 °C 1020.7 hPa ESE 3.2 km/h 6.4 km/h 96% 0.0 mm 0 W/m2
22:04 4.6 °C 4 °C 1020.7 hPa ESE 1.4 km/h 8 km/h 96% 0.0 mm 0 W/m2
22:09 4.5 °C 3.9 °C 1020.7 hPa East 6.4 km/h 9.7 km/h 96% 0.0 mm 0 W/m2
22:14 4.4 °C 3.8 °C 1020.7 hPa ESE 4.7 km/h 6.4 km/h 96% 0.0 mm 0 W/m2
22:19 4.4 °C 3.8 °C 1020.7 hPa Calm   3.2 km/h 96% 0.0 mm 0 W/m2
22:24 4.4 °C 3.8 °C 1020.3 hPa SE 3.2 km/h 4.8 km/h 96% 0.0 mm 0 W/m2
22:29 4.4 °C 3.8 °C 1020.3 hPa Calm   4.8 km/h 96% 0.0 mm 0 W/m2
22:34 4.4 °C 3.8 °C 1020.3 hPa East 1.4 km/h 4.8 km/h 96% 0.0 mm 0 W/m2
22:39 4.4 °C 3.8 °C 1020.3 hPa East 3.2 km/h 9.7 km/h 96% 0.0 mm 0 W/m2
22:44 4.4 °C 3.8 °C 1020.3 hPa ESE 4.7 km/h 6.4 km/h 96% 0.0 mm 0 W/m2
22:49 4.3 °C 3.7 °C 1020.3 hPa SE 1.4 km/h 4.8 km/h 96% 0.0 mm 0 W/m2
22:54 4.4 °C 3.8 °C 1020.3 hPa ESE 1.4 km/h 6.4 km/h 96% 0.0 mm 0 W/m2
22:59 4.3 °C 3.6 °C 1020.3 hPa East 1.4 km/h 6.4 km/h 95% 0.0 mm 0 W/m2
23:04 4.3 °C 3.6 °C 1020.3 hPa ESE 1.4 km/h 6.4 km/h 95% 0.0 mm 0 W/m2
23:09 4.3 °C 3.6 °C 1020.3 hPa Calm   4.8 km/h 95% 0.0 mm 0 W/m2
23:14 4.2 °C 3.5 °C 1020.3 hPa East 3.2 km/h 4.8 km/h 95% 0.0 mm 0 W/m2
23:19 4.2 °C 3.5 °C 1020.3 hPa ENE 3.2 km/h 8 km/h 95% 0.0 mm 0 W/m2
23:24 4.2 °C 3.5 °C 1020.3 hPa East 4.7 km/h 4.8 km/h 95% 0.0 mm 0 W/m2
23:29 4.1 °C 3.4 °C 1020.0 hPa Calm   1.6 km/h 95% 0.0 mm 0 W/m2
23:34 4.1 °C 3.4 °C 1020.0 hPa ESE 1.4 km/h 3.2 km/h 95% 0.0 mm 0 W/m2
23:39 4.1 °C 3.4 °C 1020.0 hPa East 1.4 km/h 4.8 km/h 95% 0.0 mm 0 W/m2
23:44 4.1 °C 3.4 °C 1020.0 hPa ESE 1.4 km/h 4.8 km/h 95% 0.0 mm 0 W/m2
23:49 4.1 °C 3.5 °C 1020.0 hPa Calm   3.2 km/h 96% 0.0 mm 0 W/m2
23:54 4 °C 3.3 °C 1020.0 hPa East 1.4 km/h 6.4 km/h 95% 0.0 mm 0 W/m2
23:59 4 °C 3.3 °C 1020.0 hPa East 1.4 km/h 3.2 km/h 95% 0.0 mm 0 W/m2
Juneau County Weather
Compliments of Weather Underground - 4 mb